createdAt,value
2022-12-14T00:01:26.075Z,101.00
2022-12-14T00:03:52.996Z,104.03
2022-12-14T00:06:22.256Z,109.30
2022-12-14T00:08:50.020Z,91.33
2022-12-14T00:11:16.908Z,90.87
2022-12-14T00:13:43.847Z,90.70
2022-12-14T00:16:17.301Z,90.27
2022-12-14T00:18:44.693Z,99.63
2022-12-14T00:21:13.737Z,100.13
2022-12-14T00:23:42.033Z,88.83
2022-12-14T00:26:19.595Z,101.20
2022-12-14T00:28:47.498Z,97.03
2022-12-14T00:31:14.473Z,95.27
2022-12-14T00:33:42.088Z,89.10
2022-12-14T00:36:10.172Z,91.17
2022-12-14T00:38:37.149Z,85.80
2022-12-14T00:41:03.779Z,86.03
2022-12-14T00:43:30.309Z,95.97
2022-12-14T00:45:56.818Z,95.47
2022-12-14T00:48:24.736Z,94.33
2022-12-14T00:50:53.491Z,106.60
2022-12-14T00:53:20.279Z,100.17
2022-12-14T00:55:49.256Z,97.50
2022-12-14T00:58:18.774Z,87.00
2022-12-14T01:00:45.321Z,94.57
2022-12-14T01:03:12.653Z,92.20
2022-12-14T01:05:39.386Z,101.67
2022-12-14T01:08:06.867Z,95.37
2022-12-14T01:10:33.744Z,98.50
2022-12-14T01:13:00.357Z,98.87
2022-12-14T01:15:26.847Z,96.47
2022-12-14T01:17:53.355Z,91.87
2022-12-14T01:20:20.013Z,100.60
2022-12-14T01:22:46.454Z,95.77
2022-12-14T01:25:12.963Z,103.23
2022-12-14T01:27:39.393Z,112.63
2022-12-14T01:30:06.314Z,97.77
2022-12-14T01:32:35.198Z,90.27
2022-12-14T01:35:01.649Z,104.77
2022-12-14T01:37:28.971Z,99.27
2022-12-14T01:39:55.878Z,101.70
2022-12-14T01:42:22.564Z,107.40
2022-12-14T01:44:53.319Z,94.87
2022-12-14T01:47:22.219Z,98.73
2022-12-14T01:49:57.376Z,98.77
2022-12-14T01:52:28.867Z,94.67
2022-12-14T01:55:00.731Z,109.37
2022-12-14T01:57:56.713Z,105.63
2022-12-14T02:00:23.320Z,96.07
2022-12-14T02:02:57.081Z,98.97
2022-12-14T02:05:25.100Z,103.10
2022-12-14T02:07:53.166Z,102.20
2022-12-14T02:10:20.910Z,99.57
2022-12-14T02:12:52.485Z,102.80
2022-12-14T02:15:19.176Z,103.20
2022-12-14T02:17:46.380Z,104.87
2022-12-14T02:20:14.154Z,97.93
2022-12-14T02:23:19.475Z,92.13
2022-12-14T02:26:20.423Z,94.27
2022-12-14T02:29:26.463Z,87.20
2022-12-14T02:32:29.574Z,102.87
2022-12-14T02:35:00.091Z,91.33
2022-12-14T02:37:49.271Z,96.83
2022-12-14T02:40:24.823Z,89.67
2022-12-14T02:43:26.708Z,98.40
2022-12-14T02:46:19.091Z,100.97
2022-12-14T02:48:49.818Z,90.60
2022-12-14T02:51:37.675Z,106.20
2022-12-14T02:54:11.239Z,105.97
2022-12-14T02:56:44.114Z,92.97
2022-12-14T02:59:10.730Z,87.93
2022-12-14T03:01:39.027Z,93.73
2022-12-14T03:04:06.610Z,96.70
2022-12-14T03:06:35.943Z,93.90
2022-12-14T03:09:06.887Z,94.17
2022-12-14T03:11:41.117Z,96.17
2022-12-14T03:14:15.788Z,92.93
2022-12-14T03:16:44.944Z,88.93
2022-12-14T03:19:11.421Z,92.53
2022-12-14T03:21:40.725Z,87.33
2022-12-14T03:24:11.965Z,99.17
2022-12-14T03:26:47.690Z,96.33
2022-12-14T03:29:28.787Z,106.23
2022-12-14T03:31:58.045Z,91.60
2022-12-14T03:34:29.559Z,87.27
2022-12-14T03:37:04.500Z,93.70
2022-12-14T03:39:33.505Z,104.97
2022-12-14T03:42:04.752Z,95.33
2022-12-14T03:44:49.076Z,91.10
2022-12-14T03:47:18.545Z,90.20
2022-12-14T04:04:05.933Z,99.97
2022-12-14T04:06:55.384Z,97.87
2022-12-14T04:09:38.938Z,93.80
2022-12-14T04:12:35.958Z,91.73
2022-12-14T04:15:43.751Z,89.70
2022-12-14T04:18:32.473Z,81.97
2022-12-14T04:21:09.442Z,89.03
2022-12-14T04:23:58.977Z,86.93
2022-12-14T04:26:29.986Z,91.83
2022-12-14T04:32:05.453Z,82.63
2022-12-14T04:34:33.535Z,86.00
2022-12-14T04:37:03.347Z,85.37
2022-12-14T04:39:44.216Z,91.40
2022-12-14T04:42:11.668Z,93.00
2022-12-14T04:44:41.606Z,91.07
2022-12-14T04:47:10.549Z,82.40
2022-12-14T04:49:49.748Z,90.47
2022-12-14T04:52:18.032Z,88.17
2022-12-14T04:54:56.191Z,92.10
2022-12-14T04:57:45.269Z,97.63
2022-12-14T05:00:12.210Z,94.30
2022-12-14T05:03:05.927Z,82.53
2022-12-14T05:05:57.074Z,90.17
2022-12-14T05:08:57.465Z,84.50
2022-12-14T05:14:32.731Z,87.20
2022-12-14T05:17:03.426Z,86.17
2022-12-14T05:19:33.013Z,87.00
2022-12-14T05:22:06.502Z,81.40
2022-12-14T05:24:33.058Z,86.13
2022-12-14T05:26:59.499Z,84.80
2022-12-14T05:29:26.046Z,89.90
2022-12-14T05:31:52.562Z,90.87
2022-12-14T05:34:18.993Z,85.50
2022-12-14T05:36:45.537Z,84.17
2022-12-14T05:39:12.595Z,90.33
2022-12-14T05:41:39.046Z,83.73
2022-12-14T05:44:05.631Z,97.33
2022-12-14T05:46:32.054Z,92.77
2022-12-14T05:48:58.510Z,92.50
2022-12-14T05:51:25.718Z,88.40
2022-12-14T05:53:52.147Z,93.27
2022-12-14T05:56:18.590Z,84.73
2022-12-14T05:58:49.589Z,96.90
2022-12-14T06:01:19.331Z,90.50
2022-12-14T06:03:46.259Z,91.23
2022-12-14T06:06:13.453Z,87.77
2022-12-14T06:08:44.995Z,87.13
2022-12-14T06:11:23.246Z,97.13
2022-12-14T06:13:49.835Z,84.83
2022-12-14T06:16:22.087Z,81.53
2022-12-14T06:18:56.723Z,91.17
2022-12-14T06:21:27.681Z,96.27
2022-12-14T06:23:54.795Z,93.77
2022-12-14T06:26:21.880Z,90.88
2022-12-14T06:28:48.437Z,93.17
2022-12-14T06:31:20.722Z,85.80
2022-12-14T06:33:47.762Z,96.20
2022-12-14T06:36:23.637Z,89.50
2022-12-14T06:38:54.017Z,82.00
2022-12-14T06:41:21.237Z,94.83
2022-12-14T06:43:49.344Z,98.83
2022-12-14T06:46:20.853Z,92.10
2022-12-14T06:48:54.891Z,85.43
2022-12-14T06:51:22.822Z,94.07
2022-12-14T06:53:53.088Z,92.23
2022-12-14T06:56:20.724Z,89.03
2022-12-14T06:58:47.672Z,93.27
2022-12-14T07:01:20.977Z,87.67
2022-12-14T07:03:59.323Z,89.70
2022-12-14T07:06:28.969Z,84.17
2022-12-14T07:08:57.373Z,86.93
2022-12-14T07:11:26.328Z,88.07
2022-12-14T07:13:53.735Z,88.30
2022-12-14T07:16:22.966Z,92.63
2022-12-14T07:18:49.753Z,98.27
2022-12-14T07:21:18.584Z,96.70
2022-12-14T07:23:47.292Z,91.07
2022-12-14T07:26:19.945Z,89.60
2022-12-14T07:28:46.624Z,86.93
2022-12-14T07:31:18.735Z,96.87
2022-12-14T07:33:45.893Z,97.73
2022-12-14T07:36:15.805Z,87.53
2022-12-14T07:38:43.480Z,92.00
2022-12-14T07:41:12.279Z,88.10
2022-12-14T07:43:39.471Z,86.77
2022-12-14T07:46:13.965Z,92.37
2022-12-14T07:48:47.984Z,104.90
2022-12-14T07:51:17.293Z,92.90
2022-12-14T07:53:44.337Z,81.97
2022-12-14T07:56:13.268Z,88.40
2022-12-14T07:58:39.839Z,77.57
2022-12-14T08:01:30.612Z,87.23
2022-12-14T08:04:05.607Z,96.80
2022-12-14T08:06:32.727Z,88.67
2022-12-14T08:08:59.625Z,88.27
2022-12-14T08:11:29.965Z,86.70
2022-12-14T08:13:58.352Z,88.77
2022-12-14T08:16:25.823Z,86.63
2022-12-14T08:18:53.564Z,88.47
2022-12-14T08:21:22.279Z,77.13
2022-12-14T08:23:50.201Z,82.87
2022-12-14T08:26:17.608Z,82.93
2022-12-14T08:28:44.602Z,86.27
2022-12-14T08:31:18.900Z,83.57
2022-12-14T08:34:16.436Z,82.43
2022-12-14T08:36:43.037Z,84.13
2022-12-14T08:39:10.238Z,74.83
2022-12-14T08:41:36.962Z,78.60
2022-12-14T08:44:03.921Z,81.60
2022-12-14T08:46:32.849Z,79.03
2022-12-14T08:48:59.935Z,78.57
2022-12-14T08:51:27.771Z,80.53
2022-12-14T08:53:54.687Z,84.60
2022-12-14T08:56:26.655Z,86.53
2022-12-14T08:58:53.575Z,84.30
2022-12-14T09:01:29.961Z,64.53
2022-12-14T09:04:02.327Z,55.77
2022-12-14T09:06:28.828Z,59.17
2022-12-14T09:08:55.822Z,53.03
2022-12-14T09:11:22.812Z,53.47
2022-12-14T09:13:53.683Z,53.90
2022-12-14T09:16:21.863Z,51.63
2022-12-14T09:18:49.096Z,52.53
2022-12-14T09:21:16.518Z,52.13
2022-12-14T09:23:43.448Z,48.37
2022-12-14T09:26:20.372Z,45.67
2022-12-14T09:28:50.773Z,45.90
2022-12-14T09:31:19.982Z,48.33
2022-12-14T09:33:46.656Z,49.40
2022-12-14T09:36:15.530Z,48.13
2022-12-14T09:38:50.635Z,48.07
2022-12-14T09:41:19.851Z,47.40
2022-12-14T09:43:56.922Z,48.30
2022-12-14T09:46:49.004Z,51.90
2022-12-14T09:49:41.544Z,45.90
2022-12-14T09:52:16.256Z,43.97
2022-12-14T09:54:44.276Z,43.40
2022-12-14T09:57:15.385Z,43.47
2022-12-14T09:59:41.889Z,41.70
2022-12-14T10:02:33.372Z,42.80
2022-12-14T10:05:09.244Z,46.53
2022-12-14T10:07:45.545Z,42.63
2022-12-14T10:10:43.451Z,42.77
2022-12-14T10:13:28.059Z,42.90
2022-12-14T10:16:12.965Z,43.40
2022-12-14T10:18:59.903Z,42.47
2022-12-14T10:21:40.679Z,48.53
2022-12-14T10:24:14.627Z,45.33
2022-12-14T10:26:48.377Z,46.33
2022-12-14T10:29:27.389Z,45.80
2022-12-14T10:32:21.339Z,49.23
2022-12-14T10:34:48.512Z,47.53
2022-12-14T10:37:27.242Z,48.53
2022-12-14T10:40:03.532Z,54.77
2022-12-14T10:43:15.747Z,50.33
2022-12-14T10:46:14.773Z,55.47
2022-12-14T10:49:01.258Z,50.73
2022-12-14T10:51:33.971Z,52.40
2022-12-14T10:54:33.496Z,54.10
2022-12-14T10:57:00.486Z,54.23
2022-12-14T10:59:44.706Z,56.67
2022-12-14T11:02:28.284Z,51.83
2022-12-14T11:04:57.559Z,49.37
2022-12-14T11:07:34.860Z,58.07
2022-12-14T11:10:29.642Z,56.00
2022-12-14T11:13:06.268Z,55.33
2022-12-14T11:15:38.297Z,53.57
2022-12-14T11:18:16.690Z,54.27
2022-12-14T11:20:58.344Z,56.57
2022-12-14T11:23:39.190Z,60.07
2022-12-14T11:26:15.363Z,66.53
2022-12-14T11:28:53.770Z,57.13
2022-12-14T11:31:20.627Z,53.63
2022-12-14T11:33:52.289Z,56.03
2022-12-14T11:36:37.805Z,57.10
2022-12-14T11:39:13.118Z,51.07
2022-12-14T11:42:00.865Z,56.50
2022-12-14T11:44:30.463Z,59.20
2022-12-14T11:47:00.345Z,62.43
2022-12-14T11:49:35.013Z,60.53
2022-12-14T11:52:04.386Z,54.27
2022-12-14T11:54:32.252Z,65.13
2022-12-14T11:57:05.560Z,65.13
2022-12-14T11:59:43.165Z,72.20
2022-12-14T12:02:30.770Z,70.23
2022-12-14T12:05:05.292Z,64.43
2022-12-14T12:07:34.812Z,61.80
2022-12-14T12:10:13.316Z,65.03
2022-12-14T12:12:54.199Z,70.30
2022-12-14T12:15:27.673Z,61.60
2022-12-14T12:18:00.669Z,65.70
2022-12-14T12:20:34.478Z,67.40
2022-12-14T12:23:08.094Z,61.77
2022-12-14T12:25:37.417Z,56.10
2022-12-14T12:28:17.330Z,55.60
2022-12-14T12:30:48.928Z,57.70
2022-12-14T12:33:27.321Z,55.43
2022-12-14T12:35:56.257Z,49.30
2022-12-14T12:38:31.468Z,57.30
2022-12-14T12:41:06.718Z,52.03
2022-12-14T12:43:50.046Z,53.17
2022-12-14T12:46:20.488Z,55.73
2022-12-14T12:48:50.401Z,56.57
2022-12-14T12:51:22.316Z,53.60
2022-12-14T12:53:54.126Z,47.27
2022-12-14T12:56:24.046Z,56.60
2022-12-14T12:58:53.108Z,54.53
2022-12-14T13:01:30.485Z,56.70
2022-12-14T13:04:00.160Z,51.30
2022-12-14T13:06:50.342Z,51.80
2022-12-14T13:09:37.407Z,56.27
2022-12-14T13:12:06.236Z,55.53
2022-12-14T13:14:38.570Z,53.33
2022-12-14T13:17:07.514Z,45.90
2022-12-14T13:19:51.640Z,44.90
2022-12-14T13:22:38.399Z,44.60
2022-12-14T13:25:16.288Z,53.07
2022-12-14T13:28:03.777Z,57.83
2022-12-14T13:31:11.400Z,57.73
2022-12-14T13:33:52.760Z,58.03
2022-12-14T13:36:54.949Z,55.10
2022-12-14T13:39:36.708Z,58.63
2022-12-14T13:42:27.442Z,58.13
2022-12-14T13:45:03.508Z,59.93
2022-12-14T13:47:37.059Z,53.53
2022-12-14T13:50:34.836Z,58.17
2022-12-14T13:52:55.833Z,58.27
2022-12-14T13:55:28.211Z,60.57
2022-12-14T13:58:07.066Z,59.00
2022-12-14T14:00:46.020Z,66.27
2022-12-14T14:03:34.729Z,58.47
2022-12-14T14:06:22.816Z,58.97
2022-12-14T14:08:51.391Z,55.50
2022-12-14T14:11:36.454Z,61.20
2022-12-14T14:14:24.603Z,58.83
2022-12-14T14:16:55.689Z,57.87
2022-12-14T14:19:27.771Z,53.30
2022-12-14T14:22:25.849Z,61.20
2022-12-14T14:25:34.135Z,61.33
2022-12-14T14:28:00.916Z,59.33
2022-12-14T14:30:38.103Z,62.00
2022-12-14T14:33:45.516Z,62.10
2022-12-14T14:36:18.375Z,63.23
2022-12-14T14:38:45.199Z,60.67
2022-12-14T14:41:22.148Z,63.00
2022-12-14T14:43:58.881Z,64.03
2022-12-14T14:46:38.400Z,66.73
2022-12-14T14:49:06.636Z,66.87
2022-12-14T14:51:35.900Z,69.60
2022-12-14T14:57:32.334Z,82.10
2022-12-14T15:00:02.774Z,64.57
2022-12-14T15:02:33.962Z,68.77
2022-12-14T15:05:32.914Z,60.50
2022-12-14T15:07:48.417Z,67.70
2022-12-14T15:10:23.044Z,65.10
2022-12-14T15:12:53.202Z,73.53
2022-12-14T15:15:23.407Z,69.87
2022-12-14T15:17:49.953Z,72.23
2022-12-14T15:20:24.252Z,73.20
2022-12-14T15:22:52.596Z,68.60
2022-12-14T15:25:28.623Z,75.83
2022-12-14T15:27:56.509Z,79.47
2022-12-14T15:30:26.107Z,92.10
2022-12-14T15:33:02.757Z,97.10
2022-12-14T15:35:40.847Z,85.30
2022-12-14T15:38:13.453Z,90.47
2022-12-14T15:40:41.197Z,88.87
2022-12-14T15:43:18.666Z,91.87
2022-12-14T15:45:49.410Z,96.03
2022-12-14T15:48:31.019Z,88.23
2022-12-14T15:50:59.661Z,92.93
2022-12-14T15:53:32.658Z,87.80
2022-12-14T15:56:05.515Z,82.37
2022-12-14T15:58:38.944Z,95.27
2022-12-14T16:01:30.884Z,94.93
2022-12-14T16:04:00.766Z,92.10
2022-12-14T16:06:29.003Z,87.83
2022-12-14T16:09:18.452Z,81.73
2022-12-14T16:11:47.175Z,91.63
2022-12-14T16:14:35.877Z,76.97
2022-12-14T16:17:03.181Z,89.50
2022-12-14T16:19:57.468Z,79.43
2022-12-14T16:22:23.075Z,79.57
2022-12-14T16:25:07.622Z,82.57
2022-12-14T16:27:38.268Z,77.93
2022-12-14T16:30:27.801Z,76.97
2022-12-14T16:33:18.217Z,75.20
2022-12-14T16:35:46.268Z,80.37
2022-12-14T16:38:17.820Z,72.40
2022-12-14T16:40:56.062Z,71.83
2022-12-14T16:43:41.739Z,75.53
2022-12-14T16:46:12.551Z,76.87
2022-12-14T16:48:42.268Z,75.57
2022-12-14T16:51:58.256Z,74.83
2022-12-14T16:54:29.325Z,74.03
2022-12-14T16:57:01.406Z,68.00
2022-12-14T16:59:40.121Z,73.87
2022-12-14T17:02:24.346Z,77.27
2022-12-14T17:04:51.286Z,76.47
2022-12-14T17:07:19.091Z,71.10
2022-12-14T17:09:45.628Z,72.37
2022-12-14T17:12:16.571Z,73.10
2022-12-14T17:14:49.420Z,81.13
2022-12-14T17:17:22.042Z,73.90
2022-12-14T17:19:48.779Z,73.33
2022-12-14T17:22:19.582Z,73.30
2022-12-14T17:24:46.061Z,67.57
2022-12-14T17:27:18.332Z,76.87
2022-12-14T17:29:44.844Z,69.83
2022-12-14T17:32:14.274Z,67.20
2022-12-14T17:34:41.173Z,72.13
2022-12-14T17:37:19.438Z,66.37
2022-12-14T17:39:46.186Z,69.10
2022-12-14T17:42:14.708Z,69.57
2022-12-14T17:44:43.039Z,70.90
2022-12-14T17:47:15.191Z,72.70
2022-12-14T17:49:42.956Z,68.43
2022-12-14T17:52:18.160Z,68.77
2022-12-14T17:54:44.840Z,70.13
2022-12-14T17:57:21.977Z,68.37
2022-12-14T17:59:48.813Z,64.70
2022-12-14T18:02:36.013Z,73.07
2022-12-14T18:05:02.808Z,85.43
2022-12-14T18:07:29.266Z,70.07
2022-12-14T18:09:55.941Z,76.30
2022-12-14T18:12:23.824Z,74.80
2022-12-14T18:14:50.724Z,71.77
2022-12-14T18:17:18.712Z,69.90
2022-12-14T18:19:45.175Z,78.17
2022-12-14T18:22:14.680Z,75.23
2022-12-14T18:24:41.471Z,71.70
2022-12-14T18:27:08.143Z,81.30
2022-12-14T18:29:34.837Z,76.80
2022-12-14T18:32:01.585Z,76.37
2022-12-14T18:34:28.194Z,77.53
2022-12-14T18:36:54.896Z,78.23
2022-12-14T18:39:21.363Z,83.07
2022-12-14T18:41:48.913Z,74.63
2022-12-14T18:44:15.674Z,81.50
2022-12-14T18:46:42.371Z,81.10
2022-12-14T18:49:08.936Z,75.93
2022-12-14T18:51:35.449Z,80.13
2022-12-14T18:54:03.274Z,72.97
2022-12-14T18:56:29.790Z,75.90
2022-12-14T18:58:56.349Z,68.23
2022-12-14T19:01:24.427Z,77.13
2022-12-14T19:03:51.266Z,72.83
2022-12-14T19:06:43.589Z,71.10
2022-12-14T19:09:07.592Z,74.70
2022-12-14T19:11:38.601Z,75.07
2022-12-14T19:14:05.143Z,86.60
2022-12-14T19:16:32.133Z,80.37
2022-12-14T19:18:59.657Z,69.70
2022-12-14T19:21:31.155Z,72.07
2022-12-14T19:23:59.476Z,80.13
2022-12-14T19:26:30.617Z,71.43
2022-12-14T19:28:57.129Z,74.63
2022-12-14T19:31:23.995Z,76.83
2022-12-14T19:33:50.753Z,72.90
2022-12-14T19:36:17.287Z,74.63
2022-12-14T19:38:44.945Z,73.17
2022-12-14T19:41:17.671Z,79.63
2022-12-14T19:43:44.145Z,74.80
2022-12-14T19:46:11.849Z,74.83
2022-12-14T19:48:38.808Z,80.30
2022-12-14T19:51:07.397Z,67.50
2022-12-14T19:53:34.870Z,69.47
2022-12-14T19:56:02.776Z,79.63
2022-12-14T19:58:29.635Z,76.33
2022-12-14T20:00:56.570Z,73.97
2022-12-14T20:03:23.882Z,69.10
2022-12-14T20:05:55.690Z,78.77
2022-12-14T20:08:23.299Z,71.13
2022-12-14T20:10:52.553Z,70.97
2022-12-14T20:13:19.512Z,76.13
2022-12-14T20:15:54.873Z,77.00
2022-12-14T20:18:22.711Z,78.43
2022-12-14T20:20:50.267Z,77.47
2022-12-14T20:23:21.603Z,75.20
2022-12-14T20:25:48.785Z,75.23
2022-12-14T20:28:15.244Z,79.23
2022-12-14T20:30:46.533Z,76.67
2022-12-14T20:33:13.619Z,73.07
2022-12-14T20:35:40.145Z,74.73
2022-12-14T20:38:06.815Z,84.33
2022-12-14T20:40:38.623Z,80.47
2022-12-14T20:43:05.656Z,78.53
2022-12-14T20:45:32.140Z,76.77
2022-12-14T20:47:58.614Z,79.37
2022-12-14T20:50:25.451Z,79.07
2022-12-14T20:52:51.898Z,82.30
2022-12-14T20:55:18.341Z,75.97
2022-12-14T20:57:44.755Z,76.10
2022-12-14T21:00:12.507Z,76.30
2022-12-14T21:02:39.237Z,78.27
2022-12-14T21:05:06.234Z,84.83
2022-12-14T21:07:33.602Z,76.03
2022-12-14T21:09:59.997Z,72.37
2022-12-14T21:12:27.399Z,77.40
2022-12-14T21:14:55.629Z,76.83
2022-12-14T21:17:24.021Z,79.37
2022-12-14T21:19:50.972Z,76.07
2022-12-14T21:22:20.199Z,75.93
2022-12-14T21:25:04.088Z,71.20
2022-12-14T21:27:32.041Z,73.67
2022-12-14T21:30:00.015Z,71.77
2022-12-14T21:32:27.470Z,75.27
2022-12-14T21:34:54.052Z,76.33
2022-12-14T21:37:20.849Z,63.23
2022-12-14T21:39:54.511Z,71.77
2022-12-14T21:42:23.560Z,78.47
2022-12-14T21:44:51.337Z,66.00
2022-12-14T21:47:23.320Z,68.03
2022-12-14T21:49:49.814Z,62.37
2022-12-14T21:52:18.908Z,67.73
2022-12-14T21:54:45.500Z,72.90
2022-12-14T21:57:35.557Z,70.63
2022-12-14T22:00:02.691Z,66.40
2022-12-14T22:02:29.370Z,76.37
2022-12-14T22:04:56.202Z,72.17
2022-12-14T22:07:30.797Z,73.17
2022-12-14T22:09:57.337Z,67.57
2022-12-14T22:12:23.910Z,69.87
2022-12-14T22:14:50.658Z,76.80
2022-12-14T22:17:17.192Z,71.73
2022-12-14T22:19:43.833Z,77.53
2022-12-14T22:22:14.904Z,82.07
2022-12-14T22:24:41.367Z,62.93
2022-12-14T22:27:09.554Z,77.37
2022-12-14T22:29:36.089Z,78.33
2022-12-14T22:32:02.690Z,71.40
2022-12-14T22:34:29.354Z,74.27
2022-12-14T22:36:55.795Z,71.53
2022-12-14T22:39:22.222Z,72.23
2022-12-14T22:41:49.121Z,79.17
2022-12-14T22:44:15.554Z,76.93
2022-12-14T22:46:42.098Z,70.40
2022-12-14T22:49:08.934Z,71.27
2022-12-14T22:51:35.493Z,76.87
2022-12-14T22:54:02.575Z,76.53
2022-12-14T22:56:33.510Z,73.67
2022-12-14T22:59:11.609Z,61.97
2022-12-14T23:01:38.923Z,71.87
2022-12-14T23:04:06.489Z,68.50
2022-12-14T23:06:33.752Z,68.57
2022-12-14T23:09:18.686Z,75.97
2022-12-14T23:12:03.731Z,65.67
2022-12-14T23:14:48.726Z,75.47
2022-12-14T23:17:33.800Z,75.70
2022-12-14T23:20:19.023Z,70.80
2022-12-14T23:23:03.981Z,73.47
2022-12-14T23:25:52.241Z,76.17
2022-12-14T23:28:37.986Z,68.63
2022-12-14T23:31:23.349Z,67.87
2022-12-14T23:34:09.717Z,66.57
2022-12-14T23:36:54.650Z,70.97
2022-12-14T23:39:40.018Z,68.37
2022-12-14T23:42:26.088Z,68.17
2022-12-14T23:45:11.140Z,70.43
2022-12-14T23:47:56.336Z,73.13
2022-12-14T23:50:41.356Z,69.67
2022-12-14T23:53:27.576Z,70.73
2022-12-14T23:56:12.754Z,60.53
2022-12-14T23:58:57.880Z,65.23
